createdAt,value
2019-05-13T00:09:45.892Z,24.1
2019-05-13T00:19:45.105Z,24
2019-05-13T00:29:44.491Z,24
2019-05-13T00:39:44.202Z,24
2019-05-13T00:49:43.662Z,23.9
2019-05-13T00:59:44.035Z,23.9
2019-05-13T01:09:41.183Z,23.9
2019-05-13T01:19:40.450Z,23.9
2019-05-13T01:29:39.609Z,23.9
2019-05-13T01:39:38.818Z,23.9
2019-05-13T01:49:38.032Z,23.9
2019-05-13T01:59:37.244Z,23.9
2019-05-13T02:09:36.464Z,23.9
2019-05-13T02:19:35.678Z,23.8
2019-05-13T02:29:34.890Z,23.8
2019-05-13T02:39:34.110Z,23.8
2019-05-13T02:49:33.337Z,23.7
2019-05-13T02:59:33.518Z,23.7
2019-05-13T03:09:32.442Z,23.6
2019-05-13T03:19:33.132Z,23.5
2019-05-13T03:29:32.923Z,23.5
2019-05-13T03:39:32.858Z,23.4
2019-05-13T03:49:28.599Z,23.4
2019-05-13T03:59:27.821Z,23.4
2019-05-13T04:09:31.402Z,23.3
2019-05-13T04:19:26.246Z,23.3
2019-05-13T04:29:25.455Z,23.4
2019-05-13T04:39:39.443Z,23.5
2019-05-13T04:49:23.934Z,23.4
2019-05-13T04:59:23.153Z,23.4
2019-05-13T05:09:22.672Z,23.3
2019-05-13T05:19:23.603Z,23.3
2019-05-13T05:29:21.718Z,23.3
2019-05-13T05:39:22.324Z,23.3
2019-05-13T05:49:21.131Z,23.3
2019-05-13T05:59:18.392Z,23.3
2019-05-13T06:09:17.602Z,23.3
2019-05-13T06:19:17.943Z,23.2
2019-05-13T06:29:16.033Z,23.3
2019-05-13T06:39:15.244Z,23.2
2019-05-13T06:49:14.459Z,23.1
2019-05-13T06:59:13.678Z,23.1
2019-05-13T07:09:12.943Z,23.1
2019-05-13T07:19:12.118Z,23.1
2019-05-13T07:29:13.135Z,23.1
2019-05-13T07:39:11.895Z,23.1
2019-05-13T07:49:11.927Z,23.1
2019-05-13T07:59:08.959Z,23.1
2019-05-13T08:09:08.179Z,23.1
2019-05-13T08:19:07.389Z,23.1
2019-05-13T08:29:06.601Z,23.1
2019-05-13T08:39:05.819Z,23.1
2019-05-13T08:49:05.035Z,23
2019-05-13T08:59:04.237Z,23
2019-05-13T09:09:03.454Z,23
2019-05-13T09:19:03.639Z,23
2019-05-13T09:29:01.874Z,23
2019-05-13T09:40:02.614Z,23
2019-05-13T09:50:01.544Z,23
2019-05-13T10:00:01.636Z,23
2019-05-13T10:10:01.500Z,23
2019-05-13T10:19:59.180Z,22.9
2019-05-13T10:29:58.394Z,22.9
2019-05-13T10:39:57.659Z,22.9
2019-05-13T10:49:56.827Z,22.9
2019-05-13T10:59:59.633Z,22.9
2019-05-13T11:09:55.310Z,22.9
2019-05-13T11:19:54.473Z,23
2019-05-13T11:29:53.692Z,22.9
2019-05-13T11:39:52.897Z,22.9
2019-05-13T11:49:52.448Z,22.9
2019-05-13T11:59:52.626Z,22.9
2019-05-13T12:10:53.511Z,22.9
2019-05-13T12:20:53.901Z,22.9
2019-05-13T12:30:52.976Z,22.9
2019-05-13T12:40:52.748Z,22.9
2019-05-13T12:52:00.287Z,22.9
2019-05-13T13:01:52.870Z,22.9
2019-05-13T13:12:54.845Z,22.9
2019-05-13T13:23:56.828Z,22.9
2019-05-13T13:35:13.131Z,23
2019-05-13T13:45:09.574Z,23
2019-05-13T13:55:09.434Z,22.9
2019-05-13T14:05:08.005Z,22.9
2019-05-13T14:15:07.223Z,22.9
2019-05-13T14:25:06.432Z,22.9
2019-05-13T14:35:08.630Z,22.9
2019-05-13T14:45:04.902Z,22.9
2019-05-13T14:55:04.067Z,22.9
2019-05-13T15:05:03.287Z,22.9
2019-05-13T15:15:02.572Z,22.9
2019-05-13T15:25:02.690Z,22.9
2019-05-13T15:35:02.039Z,22.9
2019-05-13T15:45:01.774Z,22.9
2019-05-13T15:55:01.378Z,22.9
2019-05-13T16:05:01.816Z,22.9
2019-05-13T16:14:57.779Z,22.9
2019-05-13T16:24:56.995Z,22.9
2019-05-13T16:34:56.197Z,22.9
2019-05-13T16:44:55.427Z,22.9
2019-05-13T16:54:54.645Z,22.9
2019-05-13T17:04:53.890Z,22.9
2019-05-13T17:14:53.107Z,22.9
2019-05-13T17:24:52.275Z,22.9
2019-05-13T17:34:51.635Z,23
2019-05-13T17:44:51.589Z,23.1
2019-05-13T17:54:51.763Z,23.1
2019-05-13T18:04:49.186Z,23.1
2019-05-13T18:14:48.344Z,23.1
2019-05-13T18:24:47.563Z,23.1
2019-05-13T18:34:46.796Z,23.2
2019-05-13T18:44:45.996Z,23.1
2019-05-13T18:54:45.205Z,23.1
2019-05-13T19:04:44.426Z,23.2
2019-05-13T19:14:43.688Z,23.2
2019-05-13T19:24:42.883Z,23.2
2019-05-13T19:34:42.425Z,23.2
2019-05-13T19:44:42.006Z,23.3
2019-05-13T19:54:41.965Z,23.2
2019-05-13T20:04:41.293Z,23.3
2019-05-13T20:14:38.921Z,23.3
2019-05-13T20:24:38.139Z,23.3
2019-05-13T20:34:37.352Z,23.3
2019-05-13T20:44:36.576Z,23.3
2019-05-13T20:54:35.790Z,23.3
2019-05-13T21:04:35.001Z,23.3
2019-05-13T21:10:02.505Z,23.3
2019-05-13T21:20:17.885Z,23.4
2019-05-13T21:30:01.263Z,23.3
2019-05-13T21:40:00.092Z,23.3
2019-05-13T21:49:59.304Z,23.4
2019-05-13T21:59:58.526Z,23.3
2019-05-13T22:09:57.779Z,23.3
2019-05-13T22:19:57.121Z,23.3
2019-05-13T22:29:56.377Z,23.3
2019-05-13T22:39:55.673Z,23.4
2019-05-13T22:49:56.871Z,23.3
2019-05-13T22:59:54.276Z,23.4
2019-05-13T23:09:53.487Z,23.4
2019-05-13T23:19:52.699Z,23.4
2019-05-13T23:29:51.910Z,23.4
2019-05-13T23:39:51.965Z,23.4
2019-05-13T23:49:51.284Z,23.4
2019-05-13T23:59:51.046Z,23.4
